sensor_id;sensor_type;location;lat;lon;timestamp;temperature;humidity
7192;DHT22;3637;51.494;11.958;2022-12-11T00:00:09;1.10;99.90
7192;DHT22;3637;51.494;11.958;2022-12-11T00:03:12;0.80;99.90
7192;DHT22;3637;51.494;11.958;2022-12-11T00:06:16;1.00;99.90
7192;DHT22;3637;51.494;11.958;2022-12-11T00:09:20;1.00;99.90
7192;DHT22;3637;51.494;11.958;2022-12-11T00:12:22;0.90;99.90
7192;DHT22;3637;51.494;11.958;2022-12-11T00:15:24;0.90;99.90
7192;DHT22;3637;51.494;11.958;2022-12-11T00:18:26;1.40;99.90
7192;DHT22;3637;51.494;11.958;2022-12-11T00:21:28;2.00;99.90
7192;DHT22;3637;51.494;11.958;2022-12-11T00:24:32;1.00;99.90
7192;DHT22;3637;51.494;11.958;2022-12-11T00:27:34;0.90;99.90
7192;DHT22;3637;51.494;11.958;2022-12-11T00:30:38;2.00;99.90
7192;DHT22;3637;51.494;11.958;2022-12-11T00:33:40;1.50;99.90
7192;DHT22;3637;51.494;11.958;2022-12-11T00:36:42;0.70;99.90
7192;DHT22;3637;51.494;11.958;2022-12-11T00:39:46;1.50;99.90
7192;DHT22;3637;51.494;11.958;2022-12-11T00:42:48;0.70;99.90
7192;DHT22;3637;51.494;11.958;2022-12-11T00:45:49;0.70;99.90
7192;DHT22;3637;51.494;11.958;2022-12-11T00:48:51;1.60;99.90
7192;DHT22;3637;51.494;11.958;2022-12-11T00:51:53;0.90;99.90
7192;DHT22;3637;51.494;11.958;2022-12-11T00:54:57;1.30;99.90
7192;DHT22;3637;51.494;11.958;2022-12-11T00:57:59;1.80;99.90
7192;DHT22;3637;51.494;11.958;2022-12-11T01:01:05;0.80;99.90
7192;DHT22;3637;51.494;11.958;2022-12-11T01:04:07;1.20;99.90
7192;DHT22;3637;51.494;11.958;2022-12-11T01:07:09;0.80;99.90
7192;DHT22;3637;51.494;11.958;2022-12-11T01:10:13;0.80;99.90
7192;DHT22;3637;51.494;11.958;2022-12-11T01:13:25;0.80;99.90
7192;DHT22;3637;51.494;11.958;2022-12-11T01:16:29;0.70;99.90
7192;DHT22;3637;51.494;11.958;2022-12-11T01:19:30;0.20;99.90
7192;DHT22;3637;51.494;11.958;2022-12-11T01:22:32;0.90;99.90
7192;DHT22;3637;51.494;11.958;2022-12-11T01:25:36;1.10;99.90
7192;DHT22;3637;51.494;11.958;2022-12-11T01:28:39;0.60;99.90
7192;DHT22;3637;51.494;11.958;2022-12-11T01:31:41;0.60;99.90
7192;DHT22;3637;51.494;11.958;2022-12-11T01:34:43;0.50;99.90
7192;DHT22;3637;51.494;11.958;2022-12-11T01:37:46;1.20;99.90
7192;DHT22;3637;51.494;11.958;2022-12-11T01:40:50;1.50;99.90
7192;DHT22;3637;51.494;11.958;2022-12-11T01:43:58;0.80;99.90
7192;DHT22;3637;51.494;11.958;2022-12-11T01:47:01;0.00;99.90
7192;DHT22;3637;51.494;11.958;2022-12-11T01:50:02;-0.40;99.90
7192;DHT22;3637;51.494;11.958;2022-12-11T01:53:05;-0.10;99.90
7192;DHT22;3637;51.494;11.958;2022-12-11T01:56:08;0.00;99.90
7192;DHT22;3637;51.494;11.958;2022-12-11T01:59:11;-0.10;99.90
7192;DHT22;3637;51.494;11.958;2022-12-11T02:02:14;-0.10;99.90
7192;DHT22;3637;51.494;11.958;2022-12-11T02:05:17;0.00;99.90
7192;DHT22;3637;51.494;11.958;2022-12-11T02:08:19;-0.10;99.90
7192;DHT22;3637;51.494;11.958;2022-12-11T02:11:23;-0.30;99.90
7192;DHT22;3637;51.494;11.958;2022-12-11T02:14:29;-0.10;99.90
7192;DHT22;3637;51.494;11.958;2022-12-11T02:17:34;-0.20;99.90
7192;DHT22;3637;51.494;11.958;2022-12-11T02:20:40;0.70;99.90
7192;DHT22;3637;51.494;11.958;2022-12-11T02:23:48;0.40;99.90
7192;DHT22;3637;51.494;11.958;2022-12-11T02:27:10;-0.20;99.90
7192;DHT22;3637;51.494;11.958;2022-12-11T02:30:16;-0.10;99.90
7192;DHT22;3637;51.494;11.958;2022-12-11T02:33:20;0.70;99.90
7192;DHT22;3637;51.494;11.958;2022-12-11T02:36:25;0.00;99.90
7192;DHT22;3637;51.494;11.958;2022-12-11T02:39:31;0.10;99.90
7192;DHT22;3637;51.494;11.958;2022-12-11T02:42:35;-0.20;99.90
7192;DHT22;3637;51.494;11.958;2022-12-11T02:45:41;0.30;99.90
7192;DHT22;3637;51.494;11.958;2022-12-11T02:48:45;0.10;99.90
7192;DHT22;3637;51.494;11.958;2022-12-11T02:51:49;1.00;99.90
7192;DHT22;3637;51.494;11.958;2022-12-11T02:54:54;0.00;99.90
7192;DHT22;3637;51.494;11.958;2022-12-11T02:58:02;-0.10;99.90
7192;DHT22;3637;51.494;11.958;2022-12-11T03:01:07;0.00;99.90
7192;DHT22;3637;51.494;11.958;2022-12-11T03:04:09;0.40;99.90
7192;DHT22;3637;51.494;11.958;2022-12-11T03:07:13;-0.10;99.90
7192;DHT22;3637;51.494;11.958;2022-12-11T03:10:18;-0.10;99.90
7192;DHT22;3637;51.494;11.958;2022-12-11T03:13:21;-0.20;99.90
7192;DHT22;3637;51.494;11.958;2022-12-11T03:16:30;-0.10;99.90
7192;DHT22;3637;51.494;11.958;2022-12-11T03:19:37;0.40;99.90
7192;DHT22;3637;51.494;11.958;2022-12-11T03:22:44;0.10;99.90
7192;DHT22;3637;51.494;11.958;2022-12-11T03:25:52;0.20;99.90
7192;DHT22;3637;51.494;11.958;2022-12-11T03:28:58;0.70;99.90
7192;DHT22;3637;51.494;11.958;2022-12-11T03:32:05;0.40;99.90
7192;DHT22;3637;51.494;11.958;2022-12-11T03:35:13;1.40;99.90
7192;DHT22;3637;51.494;11.958;2022-12-11T03:38:21;0.70;99.90
7192;DHT22;3637;51.494;11.958;2022-12-11T03:41:25;0.30;99.90
7192;DHT22;3637;51.494;11.958;2022-12-11T03:44:29;1.20;99.90
7192;DHT22;3637;51.494;11.958;2022-12-11T03:47:34;0.20;99.90
7192;DHT22;3637;51.494;11.958;2022-12-11T03:50:39;1.20;99.90
7192;DHT22;3637;51.494;11.958;2022-12-11T03:53:41;0.60;99.90
7192;DHT22;3637;51.494;11.958;2022-12-11T03:56:44;0.30;99.90
7192;DHT22;3637;51.494;11.958;2022-12-11T03:59:48;0.30;99.90
7192;DHT22;3637;51.494;11.958;2022-12-11T04:02:51;0.80;99.90
7192;DHT22;3637;51.494;11.958;2022-12-11T04:06:07;0.60;99.90
7192;DHT22;3637;51.494;11.958;2022-12-11T04:09:09;0.20;99.90
7192;DHT22;3637;51.494;11.958;2022-12-11T04:12:11;0.50;99.90
7192;DHT22;3637;51.494;11.958;2022-12-11T04:15:13;0.20;99.90
7192;DHT22;3637;51.494;11.958;2022-12-11T04:18:16;0.10;99.90
7192;DHT22;3637;51.494;11.958;2022-12-11T04:21:35;0.10;99.90
7192;DHT22;3637;51.494;11.958;2022-12-11T04:24:55;-0.10;99.90
7192;DHT22;3637;51.494;11.958;2022-12-11T04:27:57;0.00;99.90
7192;DHT22;3637;51.494;11.958;2022-12-11T04:30:59;0.30;99.90
7192;DHT22;3637;51.494;11.958;2022-12-11T04:34:02;-0.10;99.90
7192;DHT22;3637;51.494;11.958;2022-12-11T04:37:06;0.00;99.90
7192;DHT22;3637;51.494;11.958;2022-12-11T04:40:11;0.00;99.90
7192;DHT22;3637;51.494;11.958;2022-12-11T04:43:13;0.00;99.90
7192;DHT22;3637;51.494;11.958;2022-12-11T04:46:17;0.00;99.90
7192;DHT22;3637;51.494;11.958;2022-12-11T04:49:21;0.10;99.90
7192;DHT22;3637;51.494;11.958;2022-12-11T04:52:23;0.10;99.90
7192;DHT22;3637;51.494;11.958;2022-12-11T04:55:25;0.50;99.90
7192;DHT22;3637;51.494;11.958;2022-12-11T04:58:27;0.20;99.90
7192;DHT22;3637;51.494;11.958;2022-12-11T05:01:29;0.20;99.90
7192;DHT22;3637;51.494;11.958;2022-12-11T05:04:33;0.20;99.90
7192;DHT22;3637;51.494;11.958;2022-12-11T05:07:36;1.10;99.90
7192;DHT22;3637;51.494;11.958;2022-12-11T05:10:38;0.20;99.90
7192;DHT22;3637;51.494;11.958;2022-12-11T05:13:40;0.30;99.90
7192;DHT22;3637;51.494;11.958;2022-12-11T05:16:42;0.30;99.90
7192;DHT22;3637;51.494;11.958;2022-12-11T05:19:46;0.60;99.90
7192;DHT22;3637;51.494;11.958;2022-12-11T05:22:49;0.20;99.90
7192;DHT22;3637;51.494;11.958;2022-12-11T05:25:51;0.20;99.90
7192;DHT22;3637;51.494;11.958;2022-12-11T05:28:54;0.50;99.90
7192;DHT22;3637;51.494;11.958;2022-12-11T05:31:56;0.00;99.90
7192;DHT22;3637;51.494;11.958;2022-12-11T05:35:00;0.00;99.90
7192;DHT22;3637;51.494;11.958;2022-12-11T05:38:03;0.80;99.90
7192;DHT22;3637;51.494;11.958;2022-12-11T05:41:06;0.40;99.90
7192;DHT22;3637;51.494;11.958;2022-12-11T05:44:10;0.40;99.90
7192;DHT22;3637;51.494;11.958;2022-12-11T05:47:12;0.50;99.90
7192;DHT22;3637;51.494;11.958;2022-12-11T05:50:15;0.70;99.90
7192;DHT22;3637;51.494;11.958;2022-12-11T05:53:17;0.20;99.90
7192;DHT22;3637;51.494;11.958;2022-12-11T05:56:21;0.20;99.90
7192;DHT22;3637;51.494;11.958;2022-12-11T05:59:23;0.60;99.90
7192;DHT22;3637;51.494;11.958;2022-12-11T06:02:25;0.20;99.90
7192;DHT22;3637;51.494;11.958;2022-12-11T06:05:28;1.60;99.90
7192;DHT22;3637;51.494;11.958;2022-12-11T06:08:30;0.00;99.90
7192;DHT22;3637;51.494;11.958;2022-12-11T06:11:34;0.70;99.90
7192;DHT22;3637;51.494;11.958;2022-12-11T06:14:36;0.60;99.90
7192;DHT22;3637;51.494;11.958;2022-12-11T06:17:38;0.00;99.90
7192;DHT22;3637;51.494;11.958;2022-12-11T06:20:41;0.00;99.90
7192;DHT22;3637;51.494;11.958;2022-12-11T06:23:44;0.40;99.90
7192;DHT22;3637;51.494;11.958;2022-12-11T06:26:46;1.20;99.90
7192;DHT22;3637;51.494;11.958;2022-12-11T06:29:48;0.00;99.90
7192;DHT22;3637;51.494;11.958;2022-12-11T06:32:50;0.00;99.90
7192;DHT22;3637;51.494;11.958;2022-12-11T06:35:53;0.40;99.90
7192;DHT22;3637;51.494;11.958;2022-12-11T06:38:56;0.20;99.90
7192;DHT22;3637;51.494;11.958;2022-12-11T06:41:58;0.00;99.90
7192;DHT22;3637;51.494;11.958;2022-12-11T06:45:00;-0.10;99.90
7192;DHT22;3637;51.494;11.958;2022-12-11T06:48:02;0.20;99.90
7192;DHT22;3637;51.494;11.958;2022-12-11T06:51:07;0.00;99.90
7192;DHT22;3637;51.494;11.958;2022-12-11T06:54:09;0.00;99.90
7192;DHT22;3637;51.494;11.958;2022-12-11T06:57:11;-0.10;99.90
7192;DHT22;3637;51.494;11.958;2022-12-11T07:00:14;0.20;99.90
7192;DHT22;3637;51.494;11.958;2022-12-11T07:03:16;-0.30;99.90
7192;DHT22;3637;51.494;11.958;2022-12-11T07:06:20;0.10;99.90
7192;DHT22;3637;51.494;11.958;2022-12-11T07:09:22;0.80;99.90
7192;DHT22;3637;51.494;11.958;2022-12-11T07:12:24;-0.40;99.90
7192;DHT22;3637;51.494;11.958;2022-12-11T07:15:29;-0.40;99.90
7192;DHT22;3637;51.494;11.958;2022-12-11T07:18:31;-0.60;99.90
7192;DHT22;3637;51.494;11.958;2022-12-11T07:21:34;-0.60;99.90
7192;DHT22;3637;51.494;11.958;2022-12-11T07:24:36;-0.70;99.90
7192;DHT22;3637;51.494;11.958;2022-12-11T07:27:38;-0.60;99.90
7192;DHT22;3637;51.494;11.958;2022-12-11T07:30:40;0.50;99.90
7192;DHT22;3637;51.494;11.958;2022-12-11T07:33:42;0.70;99.90
7192;DHT22;3637;51.494;11.958;2022-12-11T07:36:45;0.50;99.90
7192;DHT22;3637;51.494;11.958;2022-12-11T07:39:47;-0.80;99.90
7192;DHT22;3637;51.494;11.958;2022-12-11T07:42:49;-0.70;99.90
7192;DHT22;3637;51.494;11.958;2022-12-11T07:45:51;-0.60;99.90
7192;DHT22;3637;51.494;11.958;2022-12-11T07:48:53;-0.60;99.90
7192;DHT22;3637;51.494;11.958;2022-12-11T07:51:57;-1.00;99.90
7192;DHT22;3637;51.494;11.958;2022-12-11T07:54:59;-0.90;99.90
7192;DHT22;3637;51.494;11.958;2022-12-11T07:58:01;-0.50;99.90
7192;DHT22;3637;51.494;11.958;2022-12-11T08:01:03;-0.80;99.90
7192;DHT22;3637;51.494;11.958;2022-12-11T08:04:06;-0.80;99.90
7192;DHT22;3637;51.494;11.958;2022-12-11T08:07:10;-0.10;99.90
7192;DHT22;3637;51.494;11.958;2022-12-11T08:10:12;-0.80;99.90
7192;DHT22;3637;51.494;11.958;2022-12-11T08:13:14;-0.70;99.90
7192;DHT22;3637;51.494;11.958;2022-12-11T08:16:16;-0.60;99.90
7192;DHT22;3637;51.494;11.958;2022-12-11T08:19:20;-0.50;99.90
7192;DHT22;3637;51.494;11.958;2022-12-11T08:22:23;-0.10;99.90
7192;DHT22;3637;51.494;11.958;2022-12-11T08:25:25;0.30;99.90
7192;DHT22;3637;51.494;11.958;2022-12-11T08:28:27;-0.20;99.90
7192;DHT22;3637;51.494;11.958;2022-12-11T08:31:29;-0.30;99.90
7192;DHT22;3637;51.494;11.958;2022-12-11T08:34:31;-0.20;99.90
7192;DHT22;3637;51.494;11.958;2022-12-11T08:37:34;-0.10;99.90
7192;DHT22;3637;51.494;11.958;2022-12-11T08:40:36;0.20;99.90
7192;DHT22;3637;51.494;11.958;2022-12-11T08:43:39;0.50;99.90
7192;DHT22;3637;51.494;11.958;2022-12-11T08:46:41;0.50;99.90
7192;DHT22;3637;51.494;11.958;2022-12-11T08:49:43;-0.60;99.90
7192;DHT22;3637;51.494;11.958;2022-12-11T08:52:46;-0.60;99.90
7192;DHT22;3637;51.494;11.958;2022-12-11T08:55:48;-0.60;99.90
7192;DHT22;3637;51.494;11.958;2022-12-11T08:58:50;-0.40;99.90
7192;DHT22;3637;51.494;11.958;2022-12-11T09:01:53;-0.30;99.90
7192;DHT22;3637;51.494;11.958;2022-12-11T09:04:55;0.30;99.90
7192;DHT22;3637;51.494;11.958;2022-12-11T09:07:58;-0.40;99.90
7192;DHT22;3637;51.494;11.958;2022-12-11T09:11:04;-0.50;99.90
7192;DHT22;3637;51.494;11.958;2022-12-11T09:14:18;-0.50;99.90
7192;DHT22;3637;51.494;11.958;2022-12-11T09:17:21;-0.50;99.90
7192;DHT22;3637;51.494;11.958;2022-12-11T09:20:23;0.40;99.90
7192;DHT22;3637;51.494;11.958;2022-12-11T09:23:36;-0.40;99.90
7192;DHT22;3637;51.494;11.958;2022-12-11T09:26:39;-0.10;99.90
7192;DHT22;3637;51.494;11.958;2022-12-11T09:29:41;0.50;99.90
7192;DHT22;3637;51.494;11.958;2022-12-11T09:32:43;-0.20;99.90
7192;DHT22;3637;51.494;11.958;2022-12-11T09:35:45;-0.20;99.90
7192;DHT22;3637;51.494;11.958;2022-12-11T09:38:48;-0.30;99.90
7192;DHT22;3637;51.494;11.958;2022-12-11T09:41:55;0.40;99.90
7192;DHT22;3637;51.494;11.958;2022-12-11T09:45:01;-0.10;99.90
7192;DHT22;3637;51.494;11.958;2022-12-11T09:48:04;0.00;99.90
7192;DHT22;3637;51.494;11.958;2022-12-11T09:51:13;0.10;99.90
7192;DHT22;3637;51.494;11.958;2022-12-11T09:54:21;0.10;99.90
7192;DHT22;3637;51.494;11.958;2022-12-11T09:57:31;1.00;99.90
7192;DHT22;3637;51.494;11.958;2022-12-11T10:00:39;1.30;99.90
7192;DHT22;3637;51.494;11.958;2022-12-11T10:04:00;0.20;99.90
7192;DHT22;3637;51.494;11.958;2022-12-11T10:07:11;0.20;99.90
7192;DHT22;3637;51.494;11.958;2022-12-11T10:10:21;0.30;99.90
7192;DHT22;3637;51.494;11.958;2022-12-11T10:13:34;0.10;99.90
7192;DHT22;3637;51.494;11.958;2022-12-11T10:16:43;-0.30;99.90
7192;DHT22;3637;51.494;11.958;2022-12-11T10:19:46;0.30;99.90
7192;DHT22;3637;51.494;11.958;2022-12-11T10:22:49;0.30;99.90
7192;DHT22;3637;51.494;11.958;2022-12-11T10:25:56;-0.20;99.90
7192;DHT22;3637;51.494;11.958;2022-12-11T10:28:59;-0.20;99.90
7192;DHT22;3637;51.494;11.958;2022-12-11T10:32:02;0.00;99.90
7192;DHT22;3637;51.494;11.958;2022-12-11T10:35:05;-0.20;99.90
7192;DHT22;3637;51.494;11.958;2022-12-11T10:38:13;-0.20;99.90
7192;DHT22;3637;51.494;11.958;2022-12-11T10:41:19;0.40;99.90
7192;DHT22;3637;51.494;11.958;2022-12-11T10:44:25;-0.10;99.90
7192;DHT22;3637;51.494;11.958;2022-12-11T10:47:30;0.80;99.90
7192;DHT22;3637;51.494;11.958;2022-12-11T10:50:33;0.10;99.90
7192;DHT22;3637;51.494;11.958;2022-12-11T10:53:35;-0.10;99.90
7192;DHT22;3637;51.494;11.958;2022-12-11T10:56:45;0.00;99.90
7192;DHT22;3637;51.494;11.958;2022-12-11T10:59:48;0.00;99.90
7192;DHT22;3637;51.494;11.958;2022-12-11T11:02:51;0.10;99.90
7192;DHT22;3637;51.494;11.958;2022-12-11T11:06:01;0.20;99.90
7192;DHT22;3637;51.494;11.958;2022-12-11T11:09:33;0.30;99.90
7192;DHT22;3637;51.494;11.958;2022-12-11T11:12:29;1.10;99.90
7192;DHT22;3637;51.494;11.958;2022-12-11T11:15:37;0.10;99.90
7192;DHT22;3637;51.494;11.958;2022-12-11T11:18:40;0.30;99.90
7192;DHT22;3637;51.494;11.958;2022-12-11T11:21:48;-0.20;99.90
7192;DHT22;3637;51.494;11.958;2022-12-11T11:24:53;-0.20;99.90
7192;DHT22;3637;51.494;11.958;2022-12-11T11:28:00;-0.20;99.90
7192;DHT22;3637;51.494;11.958;2022-12-11T11:31:05;-0.30;99.90
7192;DHT22;3637;51.494;11.958;2022-12-11T11:34:16;-0.10;99.90
7192;DHT22;3637;51.494;11.958;2022-12-11T11:37:24;-0.40;99.90
7192;DHT22;3637;51.494;11.958;2022-12-11T11:40:29;-0.30;99.90
7192;DHT22;3637;51.494;11.958;2022-12-11T11:43:36;-0.20;99.90
7192;DHT22;3637;51.494;11.958;2022-12-11T11:46:43;0.00;99.90
7192;DHT22;3637;51.494;11.958;2022-12-11T11:49:51;-0.30;99.90
7192;DHT22;3637;51.494;11.958;2022-12-11T11:53:01;0.20;99.90
7192;DHT22;3637;51.494;11.958;2022-12-11T11:56:16;-0.40;99.90
7192;DHT22;3637;51.494;11.958;2022-12-11T11:59:24;-0.40;99.90
7192;DHT22;3637;51.494;11.958;2022-12-11T12:02:27;-0.20;99.90
7192;DHT22;3637;51.494;11.958;2022-12-11T12:05:35;-0.20;99.90
7192;DHT22;3637;51.494;11.958;2022-12-11T12:08:43;-0.30;99.90
7192;DHT22;3637;51.494;11.958;2022-12-11T12:11:51;-1.00;99.90
7192;DHT22;3637;51.494;11.958;2022-12-11T12:15:05;-0.30;99.90
7192;DHT22;3637;51.494;11.958;2022-12-11T12:18:14;0.30;99.90
7192;DHT22;3637;51.494;11.958;2022-12-11T12:21:25;-0.70;99.90
7192;DHT22;3637;51.494;11.958;2022-12-11T12:24:36;-0.70;99.90
7192;DHT22;3637;51.494;11.958;2022-12-11T12:27:51;-0.70;99.90
7192;DHT22;3637;51.494;11.958;2022-12-11T12:31:08;-0.50;99.90
7192;DHT22;3637;51.494;11.958;2022-12-11T12:34:22;-0.60;99.90
7192;DHT22;3637;51.494;11.958;2022-12-11T12:37:39;-0.60;99.90
7192;DHT22;3637;51.494;11.958;2022-12-11T12:40:52;-0.50;99.90
7192;DHT22;3637;51.494;11.958;2022-12-11T12:44:11;-0.30;99.90
7192;DHT22;3637;51.494;11.958;2022-12-11T12:47:17;-0.10;99.90
7192;DHT22;3637;51.494;11.958;2022-12-11T12:50:21;-0.10;99.90
7192;DHT22;3637;51.494;11.958;2022-12-11T12:53:27;-0.10;99.90
7192;DHT22;3637;51.494;11.958;2022-12-11T12:56:32;-0.20;99.90
7192;DHT22;3637;51.494;11.958;2022-12-11T12:59:34;-0.10;99.90
7192;DHT22;3637;51.494;11.958;2022-12-11T13:02:47;-0.40;99.90
7192;DHT22;3637;51.494;11.958;2022-12-11T13:05:56;-0.50;99.90
7192;DHT22;3637;51.494;11.958;2022-12-11T13:09:11;0.00;99.90
7192;DHT22;3637;51.494;11.958;2022-12-11T13:12:14;-0.50;99.90
7192;DHT22;3637;51.494;11.958;2022-12-11T13:15:32;-0.40;99.90
7192;DHT22;3637;51.494;11.958;2022-12-11T13:18:36;-0.50;99.90
7192;DHT22;3637;51.494;11.958;2022-12-11T13:21:39;-0.50;99.90
7192;DHT22;3637;51.494;11.958;2022-12-11T13:24:45;0.00;99.90
7192;DHT22;3637;51.494;11.958;2022-12-11T13:27:48;-0.50;99.90
7192;DHT22;3637;51.494;11.958;2022-12-11T13:31:04;0.00;99.90
7192;DHT22;3637;51.494;11.958;2022-12-11T13:34:15;0.50;99.90
7192;DHT22;3637;51.494;11.958;2022-12-11T13:37:25;-0.40;99.90
7192;DHT22;3637;51.494;11.958;2022-12-11T13:40:34;-0.20;99.90
7192;DHT22;3637;51.494;11.958;2022-12-11T13:43:38;-0.10;99.90
7192;DHT22;3637;51.494;11.958;2022-12-11T13:46:42;-0.10;99.90
7192;DHT22;3637;51.494;11.958;2022-12-11T13:49:49;-0.50;99.90
7192;DHT22;3637;51.494;11.958;2022-12-11T13:52:54;-0.60;99.90
7192;DHT22;3637;51.494;11.958;2022-12-11T13:55:59;-0.80;99.90
7192;DHT22;3637;51.494;11.958;2022-12-11T13:59:01;-0.90;99.90
7192;DHT22;3637;51.494;11.958;2022-12-11T14:02:12;-0.80;99.90
7192;DHT22;3637;51.494;11.958;2022-12-11T14:05:17;-0.80;99.90
7192;DHT22;3637;51.494;11.958;2022-12-11T14:08:22;-0.70;99.90
7192;DHT22;3637;51.494;11.958;2022-12-11T14:11:26;-0.70;99.90
7192;DHT22;3637;51.494;11.958;2022-12-11T14:14:40;-0.20;99.90
7192;DHT22;3637;51.494;11.958;2022-12-11T14:17:45;-0.90;99.90
7192;DHT22;3637;51.494;11.958;2022-12-11T14:20:55;-0.90;99.90
7192;DHT22;3637;51.494;11.958;2022-12-11T14:23:58;-1.00;99.90
7192;DHT22;3637;51.494;11.958;2022-12-11T14:27:01;-0.90;99.90
7192;DHT22;3637;51.494;11.958;2022-12-11T14:30:09;-0.90;99.90
7192;DHT22;3637;51.494;11.958;2022-12-11T14:33:11;-0.90;99.90
7192;DHT22;3637;51.494;11.958;2022-12-11T14:36:16;-0.80;99.90
7192;DHT22;3637;51.494;11.958;2022-12-11T14:39:22;-0.90;99.90
7192;DHT22;3637;51.494;11.958;2022-12-11T14:42:30;-1.00;99.90
7192;DHT22;3637;51.494;11.958;2022-12-11T14:45:34;-0.70;99.90
7192;DHT22;3637;51.494;11.958;2022-12-11T14:48:42;-0.70;99.90
7192;DHT22;3637;51.494;11.958;2022-12-11T14:51:47;-0.90;99.90
7192;DHT22;3637;51.494;11.958;2022-12-11T14:54:52;-0.30;99.90
7192;DHT22;3637;51.494;11.958;2022-12-11T14:57:58;-0.50;99.90
7192;DHT22;3637;51.494;11.958;2022-12-11T15:01:02;-1.00;99.90
7192;DHT22;3637;51.494;11.958;2022-12-11T15:04:14;-0.90;99.90
7192;DHT22;3637;51.494;11.958;2022-12-11T15:07:23;0.40;99.90
7192;DHT22;3637;51.494;11.958;2022-12-11T15:10:29;-0.90;99.90
7192;DHT22;3637;51.494;11.958;2022-12-11T15:13:36;-0.90;99.90
7192;DHT22;3637;51.494;11.958;2022-12-11T15:16:43;-1.00;99.90
7192;DHT22;3637;51.494;11.958;2022-12-11T15:19:49;-0.90;99.90
7192;DHT22;3637;51.494;11.958;2022-12-11T15:22:56;-0.70;99.90
7192;DHT22;3637;51.494;11.958;2022-12-11T15:26:00;-0.30;99.90
7192;DHT22;3637;51.494;11.958;2022-12-11T15:29:05;-0.70;99.90
7192;DHT22;3637;51.494;11.958;2022-12-11T15:32:16;-0.50;99.90
7192;DHT22;3637;51.494;11.958;2022-12-11T15:35:22;-0.90;99.90
7192;DHT22;3637;51.494;11.958;2022-12-11T15:38:30;-0.40;99.90
7192;DHT22;3637;51.494;11.958;2022-12-11T15:41:32;-0.90;99.90
7192;DHT22;3637;51.494;11.958;2022-12-11T15:44:34;-0.90;99.90
7192;DHT22;3637;51.494;11.958;2022-12-11T15:47:38;-0.90;99.90
7192;DHT22;3637;51.494;11.958;2022-12-11T15:50:43;-0.90;99.90
7192;DHT22;3637;51.494;11.958;2022-12-11T15:53:46;-0.90;99.90
7192;DHT22;3637;51.494;11.958;2022-12-11T15:56:48;-1.00;99.90
7192;DHT22;3637;51.494;11.958;2022-12-11T15:59:52;-0.90;99.90
7192;DHT22;3637;51.494;11.958;2022-12-11T16:02:55;-1.00;99.90
7192;DHT22;3637;51.494;11.958;2022-12-11T16:05:57;-1.00;99.90
7192;DHT22;3637;51.494;11.958;2022-12-11T16:09:00;-1.00;99.90
7192;DHT22;3637;51.494;11.958;2022-12-11T16:12:05;-1.00;99.90
7192;DHT22;3637;51.494;11.958;2022-12-11T16:15:10;-0.90;99.90
7192;DHT22;3637;51.494;11.958;2022-12-11T16:18:20;-0.90;99.90
7192;DHT22;3637;51.494;11.958;2022-12-11T16:21:22;-1.00;99.90
7192;DHT22;3637;51.494;11.958;2022-12-11T16:24:26;-1.00;99.90
7192;DHT22;3637;51.494;11.958;2022-12-11T16:27:28;-0.60;99.90
7192;DHT22;3637;51.494;11.958;2022-12-11T16:30:30;-1.00;99.90
7192;DHT22;3637;51.494;11.958;2022-12-11T16:33:31;-0.80;99.90
7192;DHT22;3637;51.494;11.958;2022-12-11T16:36:35;-0.60;99.90
7192;DHT22;3637;51.494;11.958;2022-12-11T16:39:39;-0.10;99.90
7192;DHT22;3637;51.494;11.958;2022-12-11T16:42:42;-0.20;99.90
7192;DHT22;3637;51.494;11.958;2022-12-11T16:45:44;-0.60;99.90
7192;DHT22;3637;51.494;11.958;2022-12-11T16:48:46;-0.80;99.90
7192;DHT22;3637;51.494;11.958;2022-12-11T16:51:48;-0.70;99.90
7192;DHT22;3637;51.494;11.958;2022-12-11T16:54:52;-0.70;99.90
7192;DHT22;3637;51.494;11.958;2022-12-11T16:57:54;-0.70;99.90
7192;DHT22;3637;51.494;11.958;2022-12-11T17:00:56;-0.80;99.90
7192;DHT22;3637;51.494;11.958;2022-12-11T17:04:01;-0.80;99.90
7192;DHT22;3637;51.494;11.958;2022-12-11T17:07:03;-0.70;99.90
7192;DHT22;3637;51.494;11.958;2022-12-11T17:10:07;-0.80;99.90
7192;DHT22;3637;51.494;11.958;2022-12-11T17:13:10;-0.90;99.90
7192;DHT22;3637;51.494;11.958;2022-12-11T17:16:13;-0.60;99.90
7192;DHT22;3637;51.494;11.958;2022-12-11T17:19:16;-0.80;99.90
7192;DHT22;3637;51.494;11.958;2022-12-11T17:22:18;-1.00;99.90
7192;DHT22;3637;51.494;11.958;2022-12-11T17:25:21;-1.00;99.90
7192;DHT22;3637;51.494;11.958;2022-12-11T17:28:23;-1.00;99.90
7192;DHT22;3637;51.494;11.958;2022-12-11T17:31:25;-0.90;99.90
7192;DHT22;3637;51.494;11.958;2022-12-11T17:34:30;-0.90;99.90
7192;DHT22;3637;51.494;11.958;2022-12-11T17:37:33;-0.50;99.90
7192;DHT22;3637;51.494;11.958;2022-12-11T17:40:38;-0.90;99.90
7192;DHT22;3637;51.494;11.958;2022-12-11T17:43:41;-0.80;99.90
7192;DHT22;3637;51.494;11.958;2022-12-11T17:46:43;-0.90;99.90
7192;DHT22;3637;51.494;11.958;2022-12-11T17:49:45;-0.90;99.90
7192;DHT22;3637;51.494;11.958;2022-12-11T17:52:48;-0.80;99.90
7192;DHT22;3637;51.494;11.958;2022-12-11T17:55:52;-1.00;99.90
7192;DHT22;3637;51.494;11.958;2022-12-11T17:58:54;-1.00;99.90
7192;DHT22;3637;51.494;11.958;2022-12-11T18:01:56;-0.30;99.90
7192;DHT22;3637;51.494;11.958;2022-12-11T18:04:58;-1.00;99.90
7192;DHT22;3637;51.494;11.958;2022-12-11T18:08:01;-0.70;99.90
7192;DHT22;3637;51.494;11.958;2022-12-11T18:11:06;-0.90;99.90
7192;DHT22;3637;51.494;11.958;2022-12-11T18:14:08;-0.40;99.90
7192;DHT22;3637;51.494;11.958;2022-12-11T18:17:10;-0.90;99.90
7192;DHT22;3637;51.494;11.958;2022-12-11T18:20:13;-0.90;99.90
7192;DHT22;3637;51.494;11.958;2022-12-11T18:23:15;-0.90;99.90
7192;DHT22;3637;51.494;11.958;2022-12-11T18:26:19;-0.50;99.90
7192;DHT22;3637;51.494;11.958;2022-12-11T18:29:21;-0.50;99.90
7192;DHT22;3637;51.494;11.958;2022-12-11T18:32:23;-0.80;99.90
7192;DHT22;3637;51.494;11.958;2022-12-11T18:35:25;-0.70;99.90
7192;DHT22;3637;51.494;11.958;2022-12-11T18:38:27;-0.60;99.90
7192;DHT22;3637;51.494;11.958;2022-12-11T18:41:30;-0.70;99.90
7192;DHT22;3637;51.494;11.958;2022-12-11T18:44:32;-0.60;99.90
7192;DHT22;3637;51.494;11.958;2022-12-11T18:47:34;-0.70;99.90
7192;DHT22;3637;51.494;11.958;2022-12-11T18:50:36;-0.20;99.90
7192;DHT22;3637;51.494;11.958;2022-12-11T18:53:39;-0.60;99.90
7192;DHT22;3637;51.494;11.958;2022-12-11T18:56:42;-0.40;99.90
7192;DHT22;3637;51.494;11.958;2022-12-11T18:59:44;-0.60;99.90
7192;DHT22;3637;51.494;11.958;2022-12-11T19:02:49;-0.60;99.90
7192;DHT22;3637;51.494;11.958;2022-12-11T19:05:51;-0.80;99.90
7192;DHT22;3637;51.494;11.958;2022-12-11T19:08:53;-0.50;99.90
7192;DHT22;3637;51.494;11.958;2022-12-11T19:11:57;-0.50;99.90
7192;DHT22;3637;51.494;11.958;2022-12-11T19:14:59;-0.90;99.90
7192;DHT22;3637;51.494;11.958;2022-12-11T19:18:00;-0.90;99.90
7192;DHT22;3637;51.494;11.958;2022-12-11T19:21:07;-0.90;99.90
7192;DHT22;3637;51.494;11.958;2022-12-11T19:24:12;-1.00;99.90
7192;DHT22;3637;51.494;11.958;2022-12-11T19:27:16;-1.00;99.90
7192;DHT22;3637;51.494;11.958;2022-12-11T19:30:18;-1.00;99.90
7192;DHT22;3637;51.494;11.958;2022-12-11T19:33:20;-1.00;99.90
7192;DHT22;3637;51.494;11.958;2022-12-11T19:36:24;-1.00;99.90
7192;DHT22;3637;51.494;11.958;2022-12-11T19:39:26;-1.00;99.90
7192;DHT22;3637;51.494;11.958;2022-12-11T19:42:29;-1.00;99.90
7192;DHT22;3637;51.494;11.958;2022-12-11T19:45:31;-1.10;99.90
7192;DHT22;3637;51.494;11.958;2022-12-11T19:48:33;-1.00;99.90
7192;DHT22;3637;51.494;11.958;2022-12-11T19:51:38;-1.00;99.90